sensor_id;sensor_type;location;lat;lon;timestamp;P1;durP1;ratioP1;P2;durP2;ratioP2
1475;SDS011;730;48.870;12.542;2023-03-23T00:01:31;8.10;;;6.60;;
1475;SDS011;730;48.870;12.542;2023-03-23T00:04:02;5.83;;;5.33;;
1475;SDS011;730;48.870;12.542;2023-03-23T00:06:29;9.80;;;7.27;;
1475;SDS011;730;48.870;12.542;2023-03-23T00:08:59;6.07;;;5.50;;
1475;SDS011;730;48.870;12.542;2023-03-23T00:11:28;8.60;;;6.70;;
1475;SDS011;730;48.870;12.542;2023-03-23T00:13:56;7.53;;;6.07;;
1475;SDS011;730;48.870;12.542;2023-03-23T00:16:27;7.53;;;6.10;;
1475;SDS011;730;48.870;12.542;2023-03-23T00:18:57;7.40;;;5.90;;
1475;SDS011;730;48.870;12.542;2023-03-23T00:21:26;7.57;;;6.03;;
1475;SDS011;730;48.870;12.542;2023-03-23T00:26:32;6.57;;;5.97;;
1475;SDS011;730;48.870;12.542;2023-03-23T00:29:00;7.90;;;6.53;;
1475;SDS011;730;48.870;12.542;2023-03-23T00:31:29;6.83;;;6.00;;
1475;SDS011;730;48.870;12.542;2023-03-23T00:33:58;6.77;;;6.00;;
1475;SDS011;730;48.870;12.542;2023-03-23T00:36:28;6.07;;;5.57;;
1475;SDS011;730;48.870;12.542;2023-03-23T00:38:54;6.37;;;5.80;;
1475;SDS011;730;48.870;12.542;2023-03-23T00:41:25;5.97;;;5.37;;
1475;SDS011;730;48.870;12.542;2023-03-23T00:43:55;7.07;;;6.33;;
1475;SDS011;730;48.870;12.542;2023-03-23T00:46:23;6.83;;;6.13;;
1475;SDS011;730;48.870;12.542;2023-03-23T00:48:50;6.33;;;5.73;;
1475;SDS011;730;48.870;12.542;2023-03-23T00:51:17;7.47;;;6.67;;
1475;SDS011;730;48.870;12.542;2023-03-23T00:53:49;6.33;;;5.47;;
1475;SDS011;730;48.870;12.542;2023-03-23T00:56:16;5.97;;;5.37;;
1475;SDS011;730;48.870;12.542;2023-03-23T00:58:42;7.60;;;6.17;;
1475;SDS011;730;48.870;12.542;2023-03-23T01:01:09;6.33;;;5.73;;
1475;SDS011;730;48.870;12.542;2023-03-23T01:03:35;6.60;;;5.97;;
1475;SDS011;730;48.870;12.542;2023-03-23T01:06:06;7.40;;;6.00;;
1475;SDS011;730;48.870;12.542;2023-03-23T01:08:38;6.93;;;6.00;;
1475;SDS011;730;48.870;12.542;2023-03-23T01:11:11;6.60;;;6.00;;
1475;SDS011;730;48.870;12.542;2023-03-23T01:13:40;7.17;;;5.33;;
1475;SDS011;730;48.870;12.542;2023-03-23T01:16:07;8.90;;;6.43;;
1475;SDS011;730;48.870;12.542;2023-03-23T01:18:37;5.97;;;5.47;;
1475;SDS011;730;48.870;12.542;2023-03-23T01:21:05;7.00;;;6.30;;
1475;SDS011;730;48.870;12.542;2023-03-23T01:23:36;6.47;;;5.80;;
1475;SDS011;730;48.870;12.542;2023-03-23T01:26:05;6.27;;;5.70;;
1475;SDS011;730;48.870;12.542;2023-03-23T01:28:33;7.23;;;6.27;;
1475;SDS011;730;48.870;12.542;2023-03-23T01:31:01;7.60;;;6.70;;
1475;SDS011;730;48.870;12.542;2023-03-23T01:33:34;7.60;;;6.90;;
1475;SDS011;730;48.870;12.542;2023-03-23T01:36:04;7.63;;;7.00;;
1475;SDS011;730;48.870;12.542;2023-03-23T01:38:35;8.13;;;7.43;;
1475;SDS011;730;48.870;12.542;2023-03-23T01:41:01;7.47;;;6.77;;
1475;SDS011;730;48.870;12.542;2023-03-23T01:43:27;7.77;;;6.93;;
1475;SDS011;730;48.870;12.542;2023-03-23T01:45:54;7.00;;;6.40;;
1475;SDS011;730;48.870;12.542;2023-03-23T01:48:22;7.40;;;6.70;;
1475;SDS011;730;48.870;12.542;2023-03-23T01:50:53;8.37;;;7.57;;
1475;SDS011;730;48.870;12.542;2023-03-23T01:53:46;7.30;;;6.30;;
1475;SDS011;730;48.870;12.542;2023-03-23T01:56:23;7.00;;;6.37;;
1475;SDS011;730;48.870;12.542;2023-03-23T01:58:52;6.93;;;6.27;;
1475;SDS011;730;48.870;12.542;2023-03-23T02:01:20;7.50;;;6.80;;
1475;SDS011;730;48.870;12.542;2023-03-23T02:03:47;7.23;;;6.53;;
1475;SDS011;730;48.870;12.542;2023-03-23T02:06:16;8.03;;;7.23;;
1475;SDS011;730;48.870;12.542;2023-03-23T02:08:42;7.20;;;6.50;;
1475;SDS011;730;48.870;12.542;2023-03-23T02:11:13;7.63;;;6.80;;
1475;SDS011;730;48.870;12.542;2023-03-23T02:13:40;7.63;;;6.77;;
1475;SDS011;730;48.870;12.542;2023-03-23T02:16:11;9.73;;;7.80;;
1475;SDS011;730;48.870;12.542;2023-03-23T02:21:39;8.63;;;7.83;;
1475;SDS011;730;48.870;12.542;2023-03-23T02:27:14;7.77;;;6.97;;
1475;SDS011;730;48.870;12.542;2023-03-23T02:36:02;8.03;;;6.70;;
1475;SDS011;730;48.870;12.542;2023-03-23T02:38:38;7.30;;;6.50;;
1475;SDS011;730;48.870;12.542;2023-03-23T02:41:06;6.80;;;6.20;;
1475;SDS011;730;48.870;12.542;2023-03-23T02:43:36;10.27;;;6.87;;
1475;SDS011;730;48.870;12.542;2023-03-23T02:46:06;6.53;;;5.53;;
1475;SDS011;730;48.870;12.542;2023-03-23T02:48:34;6.60;;;5.90;;
1475;SDS011;730;48.870;12.542;2023-03-23T02:51:04;7.70;;;6.93;;
1475;SDS011;730;48.870;12.542;2023-03-23T02:53:33;8.40;;;6.60;;
1475;SDS011;730;48.870;12.542;2023-03-23T02:56:01;8.73;;;6.53;;
1475;SDS011;730;48.870;12.542;2023-03-23T02:58:30;8.20;;;7.13;;
1475;SDS011;730;48.870;12.542;2023-03-23T03:00:57;7.10;;;6.20;;
1475;SDS011;730;48.870;12.542;2023-03-23T03:03:26;6.60;;;5.80;;
1475;SDS011;730;48.870;12.542;2023-03-23T03:06:14;6.87;;;6.27;;
1475;SDS011;730;48.870;12.542;2023-03-23T03:08:50;6.63;;;6.03;;
1475;SDS011;730;48.870;12.542;2023-03-23T03:11:24;7.73;;;6.30;;
1475;SDS011;730;48.870;12.542;2023-03-23T03:16:27;8.33;;;6.80;;
1475;SDS011;730;48.870;12.542;2023-03-23T03:19:04;8.77;;;7.83;;
1475;SDS011;730;48.870;12.542;2023-03-23T03:21:52;6.00;;;5.40;;
1475;SDS011;730;48.870;12.542;2023-03-23T03:24:20;7.13;;;6.43;;
1475;SDS011;730;48.870;12.542;2023-03-23T03:26:50;7.80;;;7.00;;
1475;SDS011;730;48.870;12.542;2023-03-23T03:29:21;8.23;;;7.43;;
1475;SDS011;730;48.870;12.542;2023-03-23T03:31:49;8.00;;;7.23;;
1475;SDS011;730;48.870;12.542;2023-03-23T03:34:20;7.97;;;7.17;;
1475;SDS011;730;48.870;12.542;2023-03-23T03:36:50;8.13;;;7.33;;
1475;SDS011;730;48.870;12.542;2023-03-23T03:39:20;8.10;;;7.37;;
1475;SDS011;730;48.870;12.542;2023-03-23T03:41:47;7.63;;;6.83;;
1475;SDS011;730;48.870;12.542;2023-03-23T03:44:13;8.90;;;8.10;;
1475;SDS011;730;48.870;12.542;2023-03-23T03:46:40;8.90;;;8.00;;
1475;SDS011;730;48.870;12.542;2023-03-23T03:49:09;9.80;;;8.90;;
1475;SDS011;730;48.870;12.542;2023-03-23T03:51:38;7.80;;;7.10;;
1475;SDS011;730;48.870;12.542;2023-03-23T03:54:04;8.60;;;7.80;;
1475;SDS011;730;48.870;12.542;2023-03-23T03:56:30;9.30;;;8.33;;
1475;SDS011;730;48.870;12.542;2023-03-23T03:59:01;12.20;;;8.67;;
1475;SDS011;730;48.870;12.542;2023-03-23T04:01:29;9.50;;;8.60;;
1475;SDS011;730;48.870;12.542;2023-03-23T04:03:55;11.10;;;9.90;;
1475;SDS011;730;48.870;12.542;2023-03-23T04:06:22;9.90;;;8.40;;
1475;SDS011;730;48.870;12.542;2023-03-23T04:08:48;9.20;;;8.23;;
1475;SDS011;730;48.870;12.542;2023-03-23T04:11:14;9.77;;;7.90;;
1475;SDS011;730;48.870;12.542;2023-03-23T04:13:41;8.80;;;7.90;;
1475;SDS011;730;48.870;12.542;2023-03-23T04:16:07;8.97;;;8.10;;
1475;SDS011;730;48.870;12.542;2023-03-23T04:18:34;8.67;;;7.70;;
1475;SDS011;730;48.870;12.542;2023-03-23T04:21:01;9.10;;;8.20;;
1475;SDS011;730;48.870;12.542;2023-03-23T04:23:29;8.67;;;7.87;;
1475;SDS011;730;48.870;12.542;2023-03-23T04:25:58;9.20;;;8.30;;
1475;SDS011;730;48.870;12.542;2023-03-23T04:28:25;8.33;;;7.50;;
1475;SDS011;730;48.870;12.542;2023-03-23T04:30:53;8.53;;;7.73;;
1475;SDS011;730;48.870;12.542;2023-03-23T04:33:20;9.20;;;8.20;;
1475;SDS011;730;48.870;12.542;2023-03-23T04:35:52;8.70;;;6.67;;
1475;SDS011;730;48.870;12.542;2023-03-23T04:38:20;8.80;;;8.00;;
1475;SDS011;730;48.870;12.542;2023-03-23T04:40:47;8.77;;;7.87;;
1475;SDS011;730;48.870;12.542;2023-03-23T04:43:20;8.40;;;7.60;;
1475;SDS011;730;48.870;12.542;2023-03-23T04:45:54;9.07;;;8.20;;
1475;SDS011;730;48.870;12.542;2023-03-23T04:48:25;8.57;;;7.43;;
1475;SDS011;730;48.870;12.542;2023-03-23T04:50:53;9.33;;;8.43;;
1475;SDS011;730;48.870;12.542;2023-03-23T04:53:19;7.70;;;7.00;;
1475;SDS011;730;48.870;12.542;2023-03-23T04:55:46;8.03;;;7.23;;
1475;SDS011;730;48.870;12.542;2023-03-23T04:58:13;44.10;;;28.27;;
1475;SDS011;730;48.870;12.542;2023-03-23T05:00:40;14.50;;;11.73;;
1475;SDS011;730;48.870;12.542;2023-03-23T05:03:09;11.77;;;9.60;;
1475;SDS011;730;48.870;12.542;2023-03-23T05:05:36;11.93;;;8.43;;
1475;SDS011;730;48.870;12.542;2023-03-23T05:08:02;11.23;;;8.87;;
1475;SDS011;730;48.870;12.542;2023-03-23T05:10:29;7.97;;;7.17;;
1475;SDS011;730;48.870;12.542;2023-03-23T05:12:55;10.47;;;7.23;;
1475;SDS011;730;48.870;12.542;2023-03-23T05:15:21;8.00;;;7.20;;
1475;SDS011;730;48.870;12.542;2023-03-23T05:17:47;8.33;;;7.67;;
1475;SDS011;730;48.870;12.542;2023-03-23T05:20:14;8.23;;;7.23;;
1475;SDS011;730;48.870;12.542;2023-03-23T05:22:45;8.43;;;7.63;;
1475;SDS011;730;48.870;12.542;2023-03-23T05:25:16;8.10;;;7.30;;
1475;SDS011;730;48.870;12.542;2023-03-23T05:27:45;10.13;;;8.57;;
1475;SDS011;730;48.870;12.542;2023-03-23T05:30:14;10.20;;;8.50;;
1475;SDS011;730;48.870;12.542;2023-03-23T05:32:42;8.60;;;7.80;;
1475;SDS011;730;48.870;12.542;2023-03-23T05:35:11;6.93;;;6.23;;
1475;SDS011;730;48.870;12.542;2023-03-23T05:37:37;8.80;;;7.90;;
1475;SDS011;730;48.870;12.542;2023-03-23T05:40:04;7.73;;;6.93;;
1475;SDS011;730;48.870;12.542;2023-03-23T05:42:32;8.97;;;8.17;;
1475;SDS011;730;48.870;12.542;2023-03-23T05:45:00;8.50;;;7.70;;
1475;SDS011;730;48.870;12.542;2023-03-23T05:47:27;8.60;;;7.70;;
1475;SDS011;730;48.870;12.542;2023-03-23T05:49:53;7.33;;;6.40;;
1475;SDS011;730;48.870;12.542;2023-03-23T05:52:20;8.03;;;7.23;;
1475;SDS011;730;48.870;12.542;2023-03-23T05:54:48;8.07;;;6.97;;
1475;SDS011;730;48.870;12.542;2023-03-23T05:57:14;23.10;;;9.50;;
1475;SDS011;730;48.870;12.542;2023-03-23T05:59:40;8.33;;;7.53;;
1475;SDS011;730;48.870;12.542;2023-03-23T06:02:06;8.77;;;7.97;;
1475;SDS011;730;48.870;12.542;2023-03-23T06:04:32;8.63;;;7.83;;
1475;SDS011;730;48.870;12.542;2023-03-23T06:07:00;8.00;;;7.20;;
1475;SDS011;730;48.870;12.542;2023-03-23T06:09:27;10.43;;;8.03;;
1475;SDS011;730;48.870;12.542;2023-03-23T06:11:54;8.00;;;7.20;;
1475;SDS011;730;48.870;12.542;2023-03-23T06:14:20;8.77;;;8.00;;
1475;SDS011;730;48.870;12.542;2023-03-23T06:16:46;9.80;;;8.80;;
1475;SDS011;730;48.870;12.542;2023-03-23T06:19:13;11.47;;;10.27;;
1475;SDS011;730;48.870;12.542;2023-03-23T06:21:41;9.37;;;7.60;;
1475;SDS011;730;48.870;12.542;2023-03-23T06:24:08;7.50;;;6.67;;
1475;SDS011;730;48.870;12.542;2023-03-23T06:26:35;8.90;;;7.00;;
1475;SDS011;730;48.870;12.542;2023-03-23T06:29:03;9.30;;;7.00;;
1475;SDS011;730;48.870;12.542;2023-03-23T06:31:46;7.00;;;6.13;;
1475;SDS011;730;48.870;12.542;2023-03-23T06:34:14;8.10;;;7.27;;
1475;SDS011;730;48.870;12.542;2023-03-23T06:36:40;6.43;;;5.83;;
1475;SDS011;730;48.870;12.542;2023-03-23T06:39:09;8.93;;;6.77;;
1475;SDS011;730;48.870;12.542;2023-03-23T06:41:35;7.50;;;6.50;;
1475;SDS011;730;48.870;12.542;2023-03-23T06:44:01;9.27;;;6.70;;
1475;SDS011;730;48.870;12.542;2023-03-23T06:46:28;7.23;;;6.03;;
1475;SDS011;730;48.870;12.542;2023-03-23T06:48:54;9.90;;;6.83;;
1475;SDS011;730;48.870;12.542;2023-03-23T06:51:20;7.50;;;6.63;;
1475;SDS011;730;48.870;12.542;2023-03-23T06:53:47;9.57;;;7.00;;
1475;SDS011;730;48.870;12.542;2023-03-23T06:56:13;9.33;;;6.60;;
1475;SDS011;730;48.870;12.542;2023-03-23T06:58:39;7.90;;;7.20;;
1475;SDS011;730;48.870;12.542;2023-03-23T07:01:07;8.57;;;6.77;;
1475;SDS011;730;48.870;12.542;2023-03-23T07:03:35;7.23;;;6.20;;
1475;SDS011;730;48.870;12.542;2023-03-23T07:06:02;8.17;;;7.37;;
1475;SDS011;730;48.870;12.542;2023-03-23T07:08:28;8.20;;;7.40;;
1475;SDS011;730;48.870;12.542;2023-03-23T07:10:55;10.43;;;7.93;;
1475;SDS011;730;48.870;12.542;2023-03-23T07:13:21;8.33;;;7.37;;
1475;SDS011;730;48.870;12.542;2023-03-23T07:15:48;9.33;;;8.13;;
1475;SDS011;730;48.870;12.542;2023-03-23T07:18:14;7.90;;;7.10;;
1475;SDS011;730;48.870;12.542;2023-03-23T07:20:40;9.23;;;6.97;;
1475;SDS011;730;48.870;12.542;2023-03-23T07:23:07;9.40;;;7.57;;
1475;SDS011;730;48.870;12.542;2023-03-23T07:25:34;8.67;;;7.17;;
1475;SDS011;730;48.870;12.542;2023-03-23T07:28:02;9.83;;;7.57;;
1475;SDS011;730;48.870;12.542;2023-03-23T07:30:28;8.20;;;7.37;;
1475;SDS011;730;48.870;12.542;2023-03-23T07:32:55;9.33;;;7.90;;
1475;SDS011;730;48.870;12.542;2023-03-23T07:35:23;10.23;;;7.70;;
1475;SDS011;730;48.870;12.542;2023-03-23T07:37:50;8.00;;;7.30;;
1475;SDS011;730;48.870;12.542;2023-03-23T07:40:17;8.00;;;7.30;;
1475;SDS011;730;48.870;12.542;2023-03-23T07:42:45;8.27;;;7.47;;
1475;SDS011;730;48.870;12.542;2023-03-23T07:45:16;8.33;;;7.57;;
1475;SDS011;730;48.870;12.542;2023-03-23T07:47:42;10.63;;;8.27;;
1475;SDS011;730;48.870;12.542;2023-03-23T07:50:08;8.43;;;7.63;;
1475;SDS011;730;48.870;12.542;2023-03-23T07:52:39;8.57;;;7.77;;
1475;SDS011;730;48.870;12.542;2023-03-23T07:55:08;8.50;;;7.70;;
1475;SDS011;730;48.870;12.542;2023-03-23T07:57:44;8.47;;;7.70;;
1475;SDS011;730;48.870;12.542;2023-03-23T08:00:11;8.83;;;7.97;;
1475;SDS011;730;48.870;12.542;2023-03-23T08:02:48;9.10;;;7.70;;
1475;SDS011;730;48.870;12.542;2023-03-23T08:05:20;9.80;;;8.30;;
1475;SDS011;730;48.870;12.542;2023-03-23T08:07:48;8.27;;;7.47;;
1475;SDS011;730;48.870;12.542;2023-03-23T08:10:16;7.07;;;6.50;;
1475;SDS011;730;48.870;12.542;2023-03-23T08:12:44;8.60;;;7.70;;
1475;SDS011;730;48.870;12.542;2023-03-23T08:15:12;8.40;;;7.60;;
1475;SDS011;730;48.870;12.542;2023-03-23T08:17:43;8.50;;;7.70;;
1475;SDS011;730;48.870;12.542;2023-03-23T08:20:10;7.83;;;7.13;;
1475;SDS011;730;48.870;12.542;2023-03-23T08:22:42;9.27;;;8.10;;
1475;SDS011;730;48.870;12.542;2023-03-23T08:25:11;8.73;;;7.50;;
1475;SDS011;730;48.870;12.542;2023-03-23T08:27:39;9.50;;;7.93;;
1475;SDS011;730;48.870;12.542;2023-03-23T08:30:10;7.43;;;6.63;;
1475;SDS011;730;48.870;12.542;2023-03-23T08:32:38;8.33;;;7.63;;
1475;SDS011;730;48.870;12.542;2023-03-23T08:35:05;7.90;;;7.20;;
1475;SDS011;730;48.870;12.542;2023-03-23T08:37:32;11.07;;;8.10;;
1475;SDS011;730;48.870;12.542;2023-03-23T08:39:58;9.80;;;7.50;;
1475;SDS011;730;48.870;12.542;2023-03-23T08:42:24;8.87;;;7.97;;
1475;SDS011;730;48.870;12.542;2023-03-23T08:44:51;8.00;;;7.30;;
1475;SDS011;730;48.870;12.542;2023-03-23T08:47:18;7.50;;;6.70;;
1475;SDS011;730;48.870;12.542;2023-03-23T08:49:44;8.63;;;7.07;;
1475;SDS011;730;48.870;12.542;2023-03-23T08:52:10;7.87;;;7.03;;
1475;SDS011;730;48.870;12.542;2023-03-23T08:54:36;10.80;;;8.13;;
1475;SDS011;730;48.870;12.542;2023-03-23T08:57:03;8.43;;;7.77;;
1475;SDS011;730;48.870;12.542;2023-03-23T08:59:31;8.90;;;8.03;;
1475;SDS011;730;48.870;12.542;2023-03-23T09:01:57;9.30;;;8.37;;
1475;SDS011;730;48.870;12.542;2023-03-23T09:04:23;8.17;;;7.50;;
1475;SDS011;730;48.870;12.542;2023-03-23T09:06:49;8.87;;;8.00;;
1475;SDS011;730;48.870;12.542;2023-03-23T09:09:15;8.20;;;7.43;;
1475;SDS011;730;48.870;12.542;2023-03-23T09:11:41;8.57;;;7.73;;
1475;SDS011;730;48.870;12.542;2023-03-23T09:14:07;8.57;;;7.80;;
1475;SDS011;730;48.870;12.542;2023-03-23T09:16:34;8.87;;;8.07;;
1475;SDS011;730;48.870;12.542;2023-03-23T09:19:00;8.57;;;7.87;;
1475;SDS011;730;48.870;12.542;2023-03-23T09:21:27;7.77;;;6.97;;
1475;SDS011;730;48.870;12.542;2023-03-23T09:23:54;7.30;;;6.60;;
1475;SDS011;730;48.870;12.542;2023-03-23T09:26:26;7.37;;;6.63;;
1475;SDS011;730;48.870;12.542;2023-03-23T09:28:53;7.87;;;7.10;;
1475;SDS011;730;48.870;12.542;2023-03-23T09:31:19;7.60;;;6.90;;
1475;SDS011;730;48.870;12.542;2023-03-23T09:33:46;7.63;;;6.93;;
1475;SDS011;730;48.870;12.542;2023-03-23T09:36:12;7.07;;;6.47;;
1475;SDS011;730;48.870;12.542;2023-03-23T09:38:40;8.83;;;6.73;;
1475;SDS011;730;48.870;12.542;2023-03-23T09:43:58;7.30;;;6.60;;
1475;SDS011;730;48.870;12.542;2023-03-23T09:49:32;8.63;;;8.00;;
1475;SDS011;730;48.870;12.542;2023-03-23T09:52:20;7.10;;;6.50;;
1475;SDS011;730;48.870;12.542;2023-03-23T09:54:51;7.13;;;6.43;;
1475;SDS011;730;48.870;12.542;2023-03-23T09:57:23;6.57;;;5.87;;
1475;SDS011;730;48.870;12.542;2023-03-23T10:00:01;6.73;;;6.13;;
1475;SDS011;730;48.870;12.542;2023-03-23T10:07:43;7.70;;;6.13;;
1475;SDS011;730;48.870;12.542;2023-03-23T10:10:11;7.30;;;6.63;;
1475;SDS011;730;48.870;12.542;2023-03-23T10:12:47;7.53;;;6.80;;
1475;SDS011;730;48.870;12.542;2023-03-23T10:15:26;6.57;;;6.07;;
1475;SDS011;730;48.870;12.542;2023-03-23T10:18:00;6.50;;;5.87;;
1475;SDS011;730;48.870;12.542;2023-03-23T10:20:48;9.40;;;5.93;;
1475;SDS011;730;48.870;12.542;2023-03-23T10:31:10;7.03;;;6.50;;
1475;SDS011;730;48.870;12.542;2023-03-23T10:33:40;6.97;;;6.37;;
1475;SDS011;730;48.870;12.542;2023-03-23T10:38:49;6.00;;;5.50;;
1475;SDS011;730;48.870;12.542;2023-03-23T10:41:21;7.60;;;5.80;;
1475;SDS011;730;48.870;12.542;2023-03-23T10:43:48;8.50;;;6.40;;
1475;SDS011;730;48.870;12.542;2023-03-23T10:46:27;6.37;;;5.80;;
1475;SDS011;730;48.870;12.542;2023-03-23T10:48:58;6.43;;;5.90;;
1475;SDS011;730;48.870;12.542;2023-03-23T10:51:35;6.77;;;6.17;;
1475;SDS011;730;48.870;12.542;2023-03-23T10:54:03;6.33;;;5.83;;
1475;SDS011;730;48.870;12.542;2023-03-23T10:56:39;7.00;;;6.30;;
1475;SDS011;730;48.870;12.542;2023-03-23T10:59:11;5.60;;;5.10;;
1475;SDS011;730;48.870;12.542;2023-03-23T11:01:47;6.83;;;5.70;;
1475;SDS011;730;48.870;12.542;2023-03-23T11:04:18;6.57;;;5.97;;
1475;SDS011;730;48.870;12.542;2023-03-23T11:06:45;6.50;;;5.93;;
1475;SDS011;730;48.870;12.542;2023-03-23T11:09:17;6.30;;;5.80;;
1475;SDS011;730;48.870;12.542;2023-03-23T11:11:52;6.03;;;5.47;;
1475;SDS011;730;48.870;12.542;2023-03-23T11:14:27;6.40;;;5.87;;
1475;SDS011;730;48.870;12.542;2023-03-23T11:16:59;5.73;;;5.33;;
1475;SDS011;730;48.870;12.542;2023-03-23T11:19:28;6.40;;;5.90;;
1475;SDS011;730;48.870;12.542;2023-03-23T11:22:39;5.90;;;5.40;;
1475;SDS011;730;48.870;12.542;2023-03-23T11:24:54;8.30;;;5.97;;
1475;SDS011;730;48.870;12.542;2023-03-23T11:27:29;5.93;;;5.37;;
1475;SDS011;730;48.870;12.542;2023-03-23T11:29:57;6.43;;;5.87;;
1475;SDS011;730;48.870;12.542;2023-03-23T11:32:34;6.07;;;5.47;;
1475;SDS011;730;48.870;12.542;2023-03-23T11:35:05;5.60;;;4.87;;
1475;SDS011;730;48.870;12.542;2023-03-23T11:37:44;5.73;;;5.07;;
1475;SDS011;730;48.870;12.542;2023-03-23T11:40:18;4.33;;;3.93;;
1475;SDS011;730;48.870;12.542;2023-03-23T11:42:58;3.77;;;3.47;;
1475;SDS011;730;48.870;12.542;2023-03-23T11:45:33;3.67;;;3.37;;
1475;SDS011;730;48.870;12.542;2023-03-23T11:48:24;3.30;;;3.00;;
1475;SDS011;730;48.870;12.542;2023-03-23T11:50:55;3.43;;;3.13;;
1475;SDS011;730;48.870;12.542;2023-03-23T11:53:43;3.90;;;2.50;;
1475;SDS011;730;48.870;12.542;2023-03-23T11:58:54;3.40;;;1.93;;
1475;SDS011;730;48.870;12.542;2023-03-23T12:09:47;2.00;;;1.70;;
1475;SDS011;730;48.870;12.542;2023-03-23T12:16:21;1.70;;;1.50;;
1475;SDS011;730;48.870;12.542;2023-03-23T12:18:58;2.10;;;1.90;;
1475;SDS011;730;48.870;12.542;2023-03-23T12:30:23;1.90;;;1.53;;
1475;SDS011;730;48.870;12.542;2023-03-23T12:33:13;1.70;;;1.60;;
1475;SDS011;730;48.870;12.542;2023-03-23T12:41:32;2.50;;;1.53;;
1475;SDS011;730;48.870;12.542;2023-03-23T12:44:05;4.40;;;2.53;;
1475;SDS011;730;48.870;12.542;2023-03-23T12:49:21;1.80;;;1.50;;
1475;SDS011;730;48.870;12.542;2023-03-23T13:03:05;2.13;;;1.70;;
1475;SDS011;730;48.870;12.542;2023-03-23T13:05:44;2.40;;;1.60;;
1475;SDS011;730;48.870;12.542;2023-03-23T13:08:23;1.70;;;1.50;;
1475;SDS011;730;48.870;12.542;2023-03-23T13:11:04;3.13;;;1.60;;
1475;SDS011;730;48.870;12.542;2023-03-23T13:22:00;1.67;;;1.27;;
1475;SDS011;730;48.870;12.542;2023-03-23T13:24:32;2.40;;;1.30;;
1475;SDS011;730;48.870;12.542;2023-03-23T13:27:01;1.80;;;1.60;;
1475;SDS011;730;48.870;12.542;2023-03-23T13:29:27;5.40;;;1.37;;
1475;SDS011;730;48.870;12.542;2023-03-23T13:32:06;1.33;;;1.10;;
1475;SDS011;730;48.870;12.542;2023-03-23T13:34:42;1.80;;;1.53;;
1475;SDS011;730;48.870;12.542;2023-03-23T13:37:20;1.90;;;1.70;;
1475;SDS011;730;48.870;12.542;2023-03-23T13:49:54;2.13;;;1.53;;
1475;SDS011;730;48.870;12.542;2023-03-23T13:52:49;3.23;;;1.80;;
1475;SDS011;730;48.870;12.542;2023-03-23T13:55:29;3.20;;;1.77;;
1475;SDS011;730;48.870;12.542;2023-03-23T14:10:56;2.87;;;1.80;;
1475;SDS011;730;48.870;12.542;2023-03-23T14:13:30;2.43;;;1.60;;
1475;SDS011;730;48.870;12.542;2023-03-23T14:18:36;3.63;;;1.57;;
1475;SDS011;730;48.870;12.542;2023-03-23T14:21:04;2.40;;;1.50;;
1475;SDS011;730;48.870;12.542;2023-03-23T14:23:31;2.00;;;1.60;;
1475;SDS011;730;48.870;12.542;2023-03-23T14:26:04;2.67;;;1.70;;
1475;SDS011;730;48.870;12.542;2023-03-23T14:28:37;1.80;;;1.27;;
1475;SDS011;730;48.870;12.542;2023-03-23T14:31:05;1.20;;;1.10;;
1475;SDS011;730;48.870;12.542;2023-03-23T14:33:43;1.83;;;1.43;;
1475;SDS011;730;48.870;12.542;2023-03-23T14:36:09;1.63;;;1.33;;
1475;SDS011;730;48.870;12.542;2023-03-23T14:38:35;1.80;;;1.50;;
1475;SDS011;730;48.870;12.542;2023-03-23T14:41:03;2.27;;;1.60;;
1475;SDS011;730;48.870;12.542;2023-03-23T14:43:30;3.07;;;1.57;;
1475;SDS011;730;48.870;12.542;2023-03-23T14:46:00;2.70;;;1.70;;
1475;SDS011;730;48.870;12.542;2023-03-23T14:48:30;1.97;;;1.63;;
1475;SDS011;730;48.870;12.542;2023-03-23T14:50:58;2.10;;;1.50;;
1475;SDS011;730;48.870;12.542;2023-03-23T14:53:36;1.50;;;1.37;;
1475;SDS011;730;48.870;12.542;2023-03-23T14:56:09;1.70;;;1.60;;
1475;SDS011;730;48.870;12.542;2023-03-23T14:58:44;1.70;;;1.50;;
1475;SDS011;730;48.870;12.542;2023-03-23T15:01:12;2.17;;;1.70;;
1475;SDS011;730;48.870;12.542;2023-03-23T15:03:44;1.80;;;1.67;;
1475;SDS011;730;48.870;12.542;2023-03-23T15:06:17;2.03;;;1.53;;
1475;SDS011;730;48.870;12.542;2023-03-23T15:08:47;6.23;;;4.90;;
1475;SDS011;730;48.870;12.542;2023-03-23T15:13:43;2.20;;;2.00;;
1475;SDS011;730;48.870;12.542;2023-03-23T15:16:15;2.33;;;1.53;;
1475;SDS011;730;48.870;12.542;2023-03-23T15:18:49;2.87;;;1.63;;
1475;SDS011;730;48.870;12.542;2023-03-23T15:21:30;2.03;;;1.60;;
1475;SDS011;730;48.870;12.542;2023-03-23T15:24:00;1.93;;;1.53;;
1475;SDS011;730;48.870;12.542;2023-03-23T15:26:34;2.73;;;2.13;;
1475;SDS011;730;48.870;12.542;2023-03-23T15:31:38;2.07;;;1.70;;
1475;SDS011;730;48.870;12.542;2023-03-23T15:34:05;1.60;;;1.20;;
1475;SDS011;730;48.870;12.542;2023-03-23T15:36:38;2.70;;;1.80;;
1475;SDS011;730;48.870;12.542;2023-03-23T15:39:05;2.67;;;2.10;;
1475;SDS011;730;48.870;12.542;2023-03-23T15:41:32;2.30;;;1.60;;
1475;SDS011;730;48.870;12.542;2023-03-23T15:44:08;4.53;;;2.13;;
1475;SDS011;730;48.870;12.542;2023-03-23T15:46:49;7.10;;;2.10;;
1475;SDS011;730;48.870;12.542;2023-03-23T15:49:17;2.90;;;2.53;;
1475;SDS011;730;48.870;12.542;2023-03-23T15:51:44;2.20;;;1.90;;
1475;SDS011;730;48.870;12.542;2023-03-23T15:54:14;2.27;;;1.80;;
1475;SDS011;730;48.870;12.542;2023-03-23T15:56:41;5.20;;;2.00;;
1475;SDS011;730;48.870;12.542;2023-03-23T15:59:08;3.40;;;1.80;;
1475;SDS011;730;48.870;12.542;2023-03-23T16:01:34;2.10;;;1.60;;
1475;SDS011;730;48.870;12.542;2023-03-23T16:04:04;2.23;;;1.70;;
1475;SDS011;730;48.870;12.542;2023-03-23T16:06:36;3.20;;;1.90;;
1475;SDS011;730;48.870;12.542;2023-03-23T16:09:04;2.03;;;1.63;;
1475;SDS011;730;48.870;12.542;2023-03-23T16:11:31;2.70;;;1.83;;
1475;SDS011;730;48.870;12.542;2023-03-23T16:13:58;4.27;;;1.50;;
1475;SDS011;730;48.870;12.542;2023-03-23T16:16:33;2.70;;;1.70;;
1475;SDS011;730;48.870;12.542;2023-03-23T16:19:02;6.03;;;2.17;;
1475;SDS011;730;48.870;12.542;2023-03-23T16:21:28;2.60;;;1.47;;
1475;SDS011;730;48.870;12.542;2023-03-23T16:23:55;2.60;;;2.20;;
1475;SDS011;730;48.870;12.542;2023-03-23T16:26:21;5.60;;;4.07;;
1475;SDS011;730;48.870;12.542;2023-03-23T16:28:48;5.13;;;2.43;;
1475;SDS011;730;48.870;12.542;2023-03-23T16:31:14;2.60;;;1.73;;
1475;SDS011;730;48.870;12.542;2023-03-23T16:33:40;2.87;;;1.53;;
1475;SDS011;730;48.870;12.542;2023-03-23T16:36:06;2.27;;;1.97;;
1475;SDS011;730;48.870;12.542;2023-03-23T16:38:36;2.90;;;1.70;;
1475;SDS011;730;48.870;12.542;2023-03-23T16:41:02;9.00;;;2.33;;
1475;SDS011;730;48.870;12.542;2023-03-23T16:43:28;5.47;;;2.27;;
1475;SDS011;730;48.870;12.542;2023-03-23T16:46:04;4.50;;;2.70;;
1475;SDS011;730;48.870;12.542;2023-03-23T16:48:31;7.73;;;6.20;;
1475;SDS011;730;48.870;12.542;2023-03-23T16:50:57;4.47;;;4.00;;
1475;SDS011;730;48.870;12.542;2023-03-23T16:53:23;4.20;;;2.43;;
1475;SDS011;730;48.870;12.542;2023-03-23T16:55:50;2.57;;;2.37;;
1475;SDS011;730;48.870;12.542;2023-03-23T16:58:17;3.37;;;2.30;;
1475;SDS011;730;48.870;12.542;2023-03-23T17:00:44;3.40;;;2.70;;
1475;SDS011;730;48.870;12.542;2023-03-23T17:03:13;5.47;;;3.40;;
1475;SDS011;730;48.870;12.542;2023-03-23T17:05:40;5.80;;;4.20;;
1475;SDS011;730;48.870;12.542;2023-03-23T17:08:07;5.23;;;4.20;;
1475;SDS011;730;48.870;12.542;2023-03-23T17:10:33;7.60;;;5.40;;
1475;SDS011;730;48.870;12.542;2023-03-23T17:13:02;4.63;;;4.23;;
1475;SDS011;730;48.870;12.542;2023-03-23T17:15:28;5.80;;;3.37;;
1475;SDS011;730;48.870;12.542;2023-03-23T17:17:54;4.93;;;3.23;;
1475;SDS011;730;48.870;12.542;2023-03-23T17:20:20;4.90;;;3.90;;
1475;SDS011;730;48.870;12.542;2023-03-23T17:22:46;5.70;;;4.80;;
1475;SDS011;730;48.870;12.542;2023-03-23T17:25:12;5.20;;;4.67;;
1475;SDS011;730;48.870;12.542;2023-03-23T17:27:39;7.17;;;5.87;;
1475;SDS011;730;48.870;12.542;2023-03-23T17:30:06;6.43;;;5.80;;
1475;SDS011;730;48.870;12.542;2023-03-23T17:32:33;6.57;;;5.90;;